Time;durP1;ratioP1;P1;durP2;ratioP2;P2;SDS_P1;SDS_P2;PMS_P1;PMS_P2;Temp;Humidity;BMP_temperature;BMP_pressure;BME280_temperature;BME280_humidity;BME280_pressure;Samples;Min_cycle;Max_cycle;Signal;HPM_P1;HPM_P2
2021/06/14 02:32:18;;;;;;;8.57;7.00;;;13.80;98.30;;;;;;5066331;23;20444;-83
2021/06/14 02:34:21;;;;;;;10.30;6.50;;;13.90;98.30;;;;;;5067416;23;20412;-83
2021/06/14 02:36:26;;;;;;;7.43;6.73;;;13.90;98.30;;;;;;5074818;23;20462;-83
2021/06/14 02:38:29;;;;;;;8.77;7.20;;;13.90;98.30;;;;;;5152403;22;20427;-83
2021/06/14 02:40:33;;;;;;;9.80;7.07;;;14.00;98.30;;;;;;5167918;23;20518;-84
2021/06/14 02:42:37;;;;;;;11.67;7.20;;;14.00;98.30;;;;;;5167409;23;20443;-83
2021/06/14 02:44:43;;;;;;;11.87;7.27;;;14.00;98.30;;;;;;5175957;23;20427;-83
2021/06/14 02:46:47;;;;;;;8.07;5.97;;;14.00;98.30;;;;;;5175673;23;20503;-83
2021/06/14 02:48:51;;;;;;;8.20;6.80;;;14.10;98.30;;;;;;5165689;23;20428;-82
2021/06/14 02:50:57;;;;;;;8.60;6.80;;;14.10;98.30;;;;;;5166292;23;20428;-82
2021/06/14 02:53:04;;;;;;;7.83;7.03;;;14.10;98.30;;;;;;5174903;23;21026;-82
2021/06/14 02:55:13;;;;;;;7.80;6.17;;;14.00;98.30;;;;;;5175480;23;20428;-82
2021/06/14 02:57:21;;;;;;;11.23;7.90;;;14.00;98.30;;;;;;5175283;23;20442;-83
2021/06/14 02:59:26;;;;;;;8.43;6.80;;;14.00;98.30;;;;;;5175789;23;20408;-83
2021/06/14 03:01:32;;;;;;;9.60;7.03;;;14.00;98.30;;;;;;5175512;23;20527;-83
2021/06/14 03:03:37;;;;;;;15.07;6.33;;;14.10;98.30;;;;;;5176520;23;20420;-82
2021/06/14 03:05:43;;;;;;;11.67;7.10;;;14.10;98.30;;;;;;5167972;23;20447;-82
2021/06/14 03:07:46;;;;;;;9.90;7.67;;;14.10;98.30;;;;;;5176080;23;20510;-82
2021/06/14 03:09:50;;;;;;;8.57;6.57;;;14.10;98.30;;;;;;5176439;23;20482;-82
2021/06/14 03:11:54;;;;;;;9.50;7.50;;;14.10;98.30;;;;;;5167437;23;20483;-83
2021/06/14 03:13:58;;;;;;;8.27;6.67;;;14.10;98.30;;;;;;5175727;23;20428;-82
2021/06/14 03:16:02;;;;;;;8.00;6.53;;;14.20;98.30;;;;;;5167244;23;20909;-82
2021/06/14 03:18:09;;;;;;;8.30;6.60;;;14.10;98.30;;;;;;5166964;23;20428;-82
2021/06/14 03:20:14;;;;;;;7.00;6.30;;;14.00;98.30;;;;;;5167088;23;20416;-82
2021/06/14 03:22:17;;;;;;;9.00;6.87;;;14.00;98.30;;;;;;5175415;23;20534;-82
2021/06/14 03:24:21;;;;;;;11.30;7.33;;;14.00;98.30;;;;;;5175530;23;20955;-83
2021/06/14 03:26:31;;;;;;;7.10;6.37;;;14.10;98.30;;;;;;5177537;23;20423;-83
2021/06/14 03:28:40;;;;;;;9.73;6.60;;;14.10;98.30;;;;;;5176147;23;20450;-83
2021/06/14 03:30:46;;;;;;;9.10;7.10;;;14.10;98.30;;;;;;5178245;23;20491;-83
2021/06/14 03:32:51;;;;;;;7.40;6.20;;;14.10;98.30;;;;;;5177113;23;20443;-84
2021/06/14 03:34:56;;;;;;;12.47;7.63;;;14.10;98.30;;;;;;5177000;22;20424;-83
2021/06/14 03:37:00;;;;;;;11.20;7.60;;;14.10;98.30;;;;;;5176387;23;20817;-83
2021/06/14 03:39:04;;;;;;;9.23;7.40;;;14.10;98.30;;;;;;5177974;23;20479;-84
2021/06/14 03:41:07;;;;;;;11.03;7.10;;;14.10;98.30;;;;;;5177654;23;20423;-82
2021/06/14 03:43:10;;;;;;;13.13;6.87;;;14.10;98.30;;;;;;5178223;23;20454;-83
2021/06/14 03:45:14;;;;;;;12.93;6.60;;;14.00;98.30;;;;;;5177468;23;20420;-82
2021/06/14 03:47:17;;;;;;;11.77;7.90;;;14.00;98.30;;;;;;5177558;23;20431;-82
2021/06/14 03:49:20;;;;;;;7.80;7.00;;;13.90;98.30;;;;;;5176207;23;20523;-83
2021/06/14 03:51:25;;;;;;;10.67;7.70;;;13.90;98.30;;;;;;5176630;23;20428;-83
2021/06/14 03:53:31;;;;;;;13.90;7.03;;;14.00;98.30;;;;;;5168293;23;20434;-83
2021/06/14 03:55:34;;;;;;;10.77;6.80;;;13.90;98.30;;;;;;5176288;23;20893;-83
2021/06/14 03:57:41;;;;;;;8.00;7.30;;;14.00;98.30;;;;;;5175753;23;20792;-83
2021/06/14 03:59:44;;;;;;;11.43;6.50;;;13.90;98.30;;;;;;5176375;23;20447;-82
2021/06/14 04:01:48;;;;;;;9.53;7.77;;;14.00;98.30;;;;;;5176296;23;20835;-82
2021/06/14 04:04:05;;;;;;;9.50;6.47;;;14.00;98.30;;;;;;5168670;22;20507;-82
2021/06/14 04:06:09;;;;;;;10.43;7.30;;;14.10;98.30;;;;;;5168675;22;20488;-83
2021/06/14 04:08:13;;;;;;;12.10;7.60;;;14.10;98.30;;;;;;5175611;23;21101;-82
2021/06/14 04:10:16;;;;;;;7.97;7.03;;;14.20;98.30;;;;;;5174262;23;20459;-82
2021/06/14 04:12:19;;;;;;;8.63;6.70;;;14.10;98.30;;;;;;5174351;23;20450;-83
2021/06/14 04:14:23;;;;;;;9.13;7.90;;;14.10;98.30;;;;;;5166317;23;20436;-82
2021/06/14 04:16:26;;;;;;;8.73;6.27;;;14.20;98.30;;;;;;5174488;23;20503;-82
2021/06/14 04:18:29;;;;;;;8.67;6.70;;;14.20;98.30;;;;;;5174202;23;20423;-82
2021/06/14 04:20:32;;;;;;;9.43;7.57;;;14.20;98.30;;;;;;5174482;23;20507;-82
2021/06/14 04:22:35;;;;;;;7.83;7.13;;;14.30;98.30;;;;;;5175056;23;20471;-82
2021/06/14 04:24:40;;;;;;;7.87;6.83;;;14.30;98.30;;;;;;5175707;23;20507;-83
2021/06/14 04:26:43;;;;;;;8.87;6.80;;;14.40;98.30;;;;;;5175631;23;20485;-83
2021/06/14 04:28:46;;;;;;;9.00;7.43;;;14.50;98.30;;;;;;5174877;23;20527;-83
2021/06/14 04:30:49;;;;;;;13.03;7.80;;;14.40;98.30;;;;;;5174972;23;21017;-83
2021/06/14 04:32:52;;;;;;;11.33;7.40;;;14.40;98.30;;;;;;5174163;23;20978;-83
2021/06/14 04:34:55;;;;;;;11.00;7.70;;;14.60;98.30;;;;;;5166350;23;20427;-82
2021/06/14 04:36:58;;;;;;;12.73;8.50;;;14.70;98.30;;;;;;5174561;23;21159;-82
2021/06/14 04:39:01;;;;;;;8.23;7.43;;;14.70;98.30;;;;;;5166113;23;20503;-83
2021/06/14 04:41:09;;;;;;;10.07;7.40;;;14.80;98.30;;;;;;5167014;23;20434;-83
2021/06/14 04:43:12;;;;;;;9.87;7.87;;;14.90;98.30;;;;;;5174791;23;20506;-83
2021/06/14 04:45:15;;;;;;;10.10;8.07;;;14.90;98.30;;;;;;5166745;23;20423;-83
2021/06/14 04:47:19;;;;;;;8.60;7.27;;;14.90;98.30;;;;;;5175497;23;20450;-84
2021/06/14 04:49:22;;;;;;;11.27;7.47;;;15.00;98.30;;;;;;5166843;23;20443;-83
2021/06/14 04:51:25;;;;;;;12.47;7.80;;;15.00;98.30;;;;;;5176318;23;20420;-84
2021/06/14 04:53:28;;;;;;;10.53;7.97;;;15.10;98.30;;;;;;5175888;23;21014;-83
2021/06/14 04:55:31;;;;;;;19.30;14.10;;;15.20;98.30;;;;;;5175674;22;20419;-84
2021/06/14 04:57:36;;;;;;;12.03;8.93;;;15.20;98.30;;;;;;5174780;23;20431;-83
2021/06/14 04:59:39;;;;;;;13.10;8.80;;;15.20;98.30;;;;;;5174698;23;20420;-83
2021/06/14 05:01:43;;;;;;;11.13;8.30;;;15.20;98.30;;;;;;5174581;23;20527;-83
2021/06/14 05:03:46;;;;;;;17.13;11.43;;;15.30;98.30;;;;;;5174400;23;20491;-83
2021/06/14 05:05:49;;;;;;;11.07;8.73;;;15.30;98.30;;;;;;5175594;23;20739;-83
2021/06/14 05:07:52;;;;;;;13.10;8.43;;;15.40;98.30;;;;;;5174915;23;20455;-83
2021/06/14 05:09:56;;;;;;;13.30;8.23;;;15.40;98.30;;;;;;5166850;23;20451;-83
2021/06/14 05:12:00;;;;;;;12.87;8.80;;;15.50;98.30;;;;;;5175561;22;20660;-83
2021/06/14 05:14:05;;;;;;;25.23;17.43;;;15.40;98.30;;;;;;5175696;23;20428;-83
2021/06/14 05:16:10;;;;;;;10.87;8.10;;;15.50;98.30;;;;;;5168792;22;20412;-83
2021/06/14 05:18:13;;;;;;;11.60;8.10;;;15.70;98.30;;;;;;5167179;23;20424;-84
2021/06/14 05:20:17;;;;;;;11.27;8.10;;;15.70;98.30;;;;;;5167029;23;20511;-83
2021/06/14 05:22:20;;;;;;;11.20;8.50;;;15.70;98.30;;;;;;5168051;23;20953;-84
2021/06/14 05:24:23;;;;;;;14.13;7.50;;;15.70;98.30;;;;;;5174775;23;20777;-83
2021/06/14 05:26:26;;;;;;;8.97;7.50;;;15.70;98.30;;;;;;5174598;23;20443;-82
2021/06/14 05:28:30;;;;;;;15.33;11.93;;;15.70;98.30;;;;;;5175386;23;20467;-83
2021/06/14 05:30:35;;;;;;;14.60;9.63;;;15.70;98.30;;;;;;5165875;23;20428;-84
2021/06/14 05:32:39;;;;;;;10.80;9.23;;;15.80;98.30;;;;;;5166677;23;21127;-84
2021/06/14 05:34:42;;;;;;;11.47;7.83;;;15.90;98.30;;;;;;5176002;23;20519;-83
2021/06/14 05:36:45;;;;;;;8.00;6.60;;;16.00;98.30;;;;;;5176396;23;20430;-83
2021/06/14 05:38:48;;;;;;;9.30;6.93;;;16.00;98.30;;;;;;5176769;23;20447;-84
2021/06/14 05:40:51;;;;;;;7.40;6.63;;;16.00;98.30;;;;;;5169698;23;20744;-83
2021/06/14 05:42:54;;;;;;;10.63;7.23;;;16.00;98.30;;;;;;5177620;23;20475;-83
2021/06/14 05:44:57;;;;;;;13.10;6.67;;;16.10;98.30;;;;;;5178485;23;20446;-83
2021/06/14 05:47:02;;;;;;;10.23;6.83;;;16.10;98.30;;;;;;5179272;23;20948;-83
2021/06/14 05:49:05;;;;;;;9.37;6.57;;;16.10;98.30;;;;;;5170628;23;20482;-83
2021/06/14 05:51:11;;;;;;;9.20;6.60;;;16.30;98.30;;;;;;5177546;22;20404;-83
2021/06/14 05:53:14;;;;;;;8.70;7.13;;;16.30;98.30;;;;;;5169191;23;20526;-83
2021/06/14 05:55:17;;;;;;;8.13;6.50;;;16.30;98.30;;;;;;5177229;23;20424;-83
2021/06/14 05:57:20;;;;;;;15.27;6.27;;;16.30;98.30;;;;;;5177312;23;20424;-83
2021/06/14 05:59:23;;;;;;;10.57;7.87;;;16.40;98.30;;;;;;5177925;23;20419;-85
2021/06/14 06:01:28;;;;;;;9.50;7.03;;;16.50;98.30;;;;;;5178254;23;20744;-83
2021/06/14 06:03:33;;;;;;;13.40;7.87;;;16.50;98.30;;;;;;5178980;23;20909;-83
2021/06/14 06:05:36;;;;;;;8.87;6.53;;;16.70;98.30;;;;;;5171285;23;20423;-83
2021/06/14 06:07:39;;;;;;;8.53;6.90;;;16.80;98.30;;;;;;5178973;23;20507;-83
2021/06/14 06:09:42;;;;;;;16.13;11.17;;;16.70;98.30;;;;;;5179332;23;20522;-83
2021/06/14 06:11:45;;;;;;;8.60;6.97;;;16.80;98.30;;;;;;5169316;23;20450;-83
2021/06/14 06:13:49;;;;;;;7.47;6.67;;;16.90;98.30;;;;;;5179021;22;20439;-83
2021/06/14 06:15:52;;;;;;;8.83;7.07;;;16.90;98.30;;;;;;5178818;23;20427;-83
2021/06/14 06:17:56;;;;;;;8.43;6.70;;;16.90;98.30;;;;;;5179050;23;20933;-84
2021/06/14 06:20:02;;;;;;;9.53;6.40;;;17.10;98.30;;;;;;5177540;23;20434;-84
2021/06/14 06:22:05;;;;;;;8.53;6.60;;;17.10;98.30;;;;;;5177711;23;20447;-83
2021/06/14 06:24:13;;;;;;;13.53;7.23;;;17.10;98.30;;;;;;5178123;23;20465;-83
2021/06/14 06:26:17;;;;;;;8.20;6.50;;;17.20;98.30;;;;;;5178404;23;20507;-83
2021/06/14 06:28:23;;;;;;;13.10;6.30;;;17.30;98.30;;;;;;5169905;23;20494;-83
2021/06/14 06:30:29;;;;;;;6.80;6.00;;;17.40;98.30;;;;;;5170321;23;20436;-83
2021/06/14 06:32:32;;;;;;;11.40;7.53;;;17.50;98.30;;;;;;5179429;23;20740;-83
2021/06/14 06:34:37;;;;;;;8.30;6.37;;;17.50;98.30;;;;;;5171466;23;20446;-84
2021/06/14 06:36:42;;;;;;;11.30;6.77;;;17.50;98.30;;;;;;5180798;22;20511;-84
2021/06/14 06:38:45;;;;;;;12.13;6.23;;;17.60;98.30;;;;;;5180264;23;20662;-84
2021/06/14 06:40:56;;;;;;;9.70;6.40;;;17.70;98.30;;;;;;5177061;23;20423;-87
2021/06/14 06:43:15;;;;;;;9.93;6.03;;;17.80;98.30;;;;;;5175098;23;20446;-87
2021/06/14 06:45:25;;;;;;;10.63;6.70;;;17.90;98.30;;;;;;5174513;23;20419;-86
2021/06/14 06:47:31;;;;;;;17.30;5.70;;;18.00;98.30;;;;;;5174023;23;20396;-87
2021/06/14 06:49:41;;;;;;;7.60;6.10;;;18.10;98.30;;;;;;5172398;23;20991;-87
2021/06/14 06:51:50;;;;;;;8.63;5.40;;;18.20;98.30;;;;;;5172362;23;20921;-87
2021/06/14 06:54:11;;;;;;;8.63;4.77;;;18.30;98.30;;;;;;5171941;23;20424;-86
2021/06/14 06:56:24;;;;;;;6.80;5.20;;;18.50;98.20;;;;;;5172241;23;20426;-86
2021/06/14 06:58:33;;;;;;;9.67;5.27;;;18.50;97.00;;;;;;5171745;22;20434;-87
2021/06/14 07:00:40;;;;;;;8.83;5.10;;;18.50;97.20;;;;;;5171977;23;20425;-87
2021/06/14 07:02:44;;;;;;;9.37;5.40;;;18.60;97.60;;;;;;5172243;22;20447;-87
2021/06/14 07:05:15;;;;;;;9.07;5.67;;;18.70;96.90;;;;;;5173970;23;20423;-87
2021/06/14 07:07:26;;;;;;;10.80;5.70;;;18.70;97.30;;;;;;5173874;22;20434;-87
2021/06/14 07:09:29;;;;;;;8.67;4.93;;;18.80;95.90;;;;;;5173913;22;20482;-87
2021/06/14 07:11:33;;;;;;;8.23;4.70;;;18.90;95.50;;;;;;5173652;23;20448;-87
2021/06/14 07:13:39;;;;;;;7.37;5.23;;;18.90;95.20;;;;;;5173575;23;20432;-87
2021/06/14 07:15:46;;;;;;;8.03;4.93;;;19.00;94.90;;;;;;5173770;23;20422;-87
2021/06/14 07:17:54;;;;;;;10.17;5.80;;;19.00;94.20;;;;;;5173243;23;20423;-86
2021/06/14 07:19:57;;;;;;;8.10;5.40;;;19.10;95.10;;;;;;5173633;23;20797;-87
2021/06/14 07:22:00;;;;;;;7.23;4.73;;;19.10;95.40;;;;;;5164938;22;20941;-87
2021/06/14 07:24:08;;;;;;;9.07;5.40;;;19.30;95.20;;;;;;5173882;23;20416;-87
2021/06/14 07:26:14;;;;;;;9.03;5.20;;;19.50;94.90;;;;;;5173606;23;20419;-87
2021/06/14 07:28:20;;;;;;;8.63;5.30;;;19.40;93.60;;;;;;5173146;23;20493;-86
2021/06/14 07:30:24;;;;;;;7.47;5.40;;;19.30;94.20;;;;;;5172548;22;20456;-86
2021/06/14 07:32:30;;;;;;;9.80;5.57;;;19.40;94.90;;;;;;5173353;23;20448;-87
2021/06/14 07:34:41;;;;;;;9.73;5.50;;;19.50;94.00;;;;;;5165045;23;20413;-87
2021/06/14 07:36:56;;;;;;;10.27;6.23;;;19.50;93.00;;;;;;5173302;23;20775;-87
2021/06/14 07:39:05;;;;;;;10.17;5.57;;;19.50;94.70;;;;;;5173490;23;20470;-87
2021/06/14 07:41:11;;;;;;;9.90;6.17;;;19.60;93.70;;;;;;5173975;23;20409;-87
2021/06/14 07:43:15;;;;;;;11.60;6.13;;;19.60;93.80;;;;;;5173230;22;20434;-87
2021/06/14 07:45:24;;;;;;;8.97;5.40;;;19.70;94.00;;;;;;5165394;23;20412;-87
2021/06/14 07:47:33;;;;;;;10.30;5.27;;;19.70;94.00;;;;;;5173098;23;20498;-86
2021/06/14 07:49:44;;;;;;;8.47;5.50;;;19.70;93.00;;;;;;5173605;22;20426;-87
2021/06/14 07:51:50;;;;;;;11.37;5.90;;;19.80;94.00;;;;;;5173713;23;20432;-86
2021/06/14 07:54:01;;;;;;;8.13;5.20;;;19.80;92.70;;;;;;5174219;22;20992;-87
2021/06/14 07:56:16;;;;;;;11.17;5.20;;;19.90;93.20;;;;;;5173262;23;20416;-87
2021/06/14 07:58:37;;;;;;;10.97;6.20;;;19.90;92.40;;;;;;5164790;23;20463;-87
2021/06/14 08:00:46;;;;;;;10.73;5.87;;;19.90;93.20;;;;;;5173195;23;20400;-87
2021/06/14 08:02:58;;;;;;;9.87;5.43;;;20.10;93.60;;;;;;5173527;23;20471;-86
2021/06/14 08:05:08;;;;;;;12.03;6.30;;;20.00;92.80;;;;;;5174569;23;20503;-86
2021/06/14 08:07:18;;;;;;;8.57;5.13;;;20.10;93.40;;;;;;5173529;23;20929;-86
2021/06/14 08:09:27;;;;;;;9.13;5.50;;;20.30;92.10;;;;;;5174171;22;20457;-86
2021/06/14 08:11:33;;;;;;;10.83;6.07;;;20.40;90.60;;;;;;5174095;23;20444;-87
2021/06/14 08:13:42;;;;;;;9.53;5.30;;;20.30;91.40;;;;;;5174434;22;20754;-86
2021/06/14 08:16:01;;;;;;;7.33;5.50;;;20.50;90.60;;;;;;5173662;23;20968;-86
2021/06/14 08:18:18;;;;;;;8.70;5.60;;;20.50;90.10;;;;;;5173739;22;20458;-87
2021/06/14 08:20:30;;;;;;;6.73;5.53;;;20.60;90.50;;;;;;5174681;23;20400;-87
2021/06/14 08:25:03;;;;;;;10.67;5.27;;;20.80;90.30;;;;;;5174142;22;20502;-86
2021/06/14 08:25:15;;;;;;;9.90;5.53;;;20.80;89.70;;;;;;5174288;23;20865;-86
2021/06/14 08:27:31;;;;;;;8.33;6.00;;;20.90;89.80;;;;;;5174145;22;20428;-86
2021/06/14 08:29:43;;;;;;;11.97;6.80;;;21.00;89.40;;;;;;5165741;23;20451;-87
2021/06/14 08:31:58;;;;;;;7.23;5.50;;;21.00;89.30;;;;;;5173580;23;20526;-87
2021/06/14 08:34:16;;;;;;;6.90;5.10;;;21.20;88.00;;;;;;5177366;22;20427;-87
2021/06/14 08:36:31;;;;;;;7.23;4.93;;;21.30;87.80;;;;;;5176137;22;20430;-87
2021/06/14 08:38:40;;;;;;;7.10;5.43;;;21.20;87.40;;;;;;5168253;23;20423;-87
2021/06/14 08:40:48;;;;;;;7.90;5.63;;;21.10;88.40;;;;;;5175636;23;20475;-86
2021/06/14 08:42:52;;;;;;;11.37;6.67;;;21.20;87.50;;;;;;5174441;23;20443;-86
2021/06/14 08:45:05;;;;;;;8.67;5.70;;;21.20;88.50;;;;;;5174296;22;20431;-86
2021/06/14 08:47:17;;;;;;;7.47;5.30;;;21.50;87.20;;;;;;5173883;23;20431;-87
2021/06/14 08:49:25;;;;;;;10.60;5.47;;;21.60;87.70;;;;;;5173646;23;20454;-86
2021/06/14 08:51:29;;;;;;;9.13;5.87;;;21.80;87.30;;;;;;5173049;23;21018;-86
2021/06/14 08:53:35;;;;;;;6.57;5.63;;;21.90;87.30;;;;;;5174193;23;20749;-87
2021/06/14 08:55:52;;;;;;;9.90;5.47;;;21.90;85.90;;;;;;5173673;23;20917;-86
2021/06/14 08:58:08;;;;;;;7.60;5.57;;;22.00;86.50;;;;;;5173412;23;20424;-87
2021/06/14 09:00:17;;;;;;;7.90;5.57;;;22.00;85.60;;;;;;5173701;23;20427;-86
2021/06/14 09:04:47;;;;;;;6.27;5.40;;;22.00;84.90;;;;;;5164554;22;20427;-87
2021/06/14 09:06:50;;;;;;;8.50;5.73;;;22.10;84.50;;;;;;5173846;23;20426;-86
2021/06/14 09:09:07;;;;;;;9.80;6.17;;;22.10;84.70;;;;;;5173634;23;20444;-87
2021/06/14 09:11:12;;;;;;;9.70;6.03;;;22.10;85.20;;;;;;5173808;23;20792;-87
2021/06/14 09:13:22;;;;;;;7.57;5.80;;;22.30;84.10;;;;;;5174060;23;20427;-87
2021/06/14 09:15:41;;;;;;;9.20;5.43;;;22.20;83.70;;;;;;5173849;23;20502;-87
2021/06/14 09:17:55;;;;;;;7.63;5.33;;;22.30;84.10;;;;;;5178122;23;20407;-87
2021/06/14 09:20:01;;;;;;;13.80;6.90;;;22.40;83.30;;;;;;5176417;23;20435;-86
2021/06/14 09:22:19;;;;;;;10.20;5.33;;;22.40;83.40;;;;;;5178965;23;20443;-87
2021/06/14 09:24:25;;;;;;;7.10;5.37;;;22.50;83.90;;;;;;5167668;23;20412;-87
2021/06/14 09:26:42;;;;;;;9.20;5.30;;;22.50;84.40;;;;;;5178184;22;20776;-86
2021/06/14 09:28:51;;;;;;;11.70;6.63;;;22.50;83.90;;;;;;5178275;23;20397;-87
2021/06/14 09:30:57;;;;;;;7.93;5.40;;;22.60;83.30;;;;;;5175496;22;20468;-86
2021/06/14 09:33:02;;;;;;;7.77;4.93;;;22.70;83.20;;;;;;5173576;23;20443;-86
2021/06/14 09:35:16;;;;;;;8.03;5.40;;;22.70;83.30;;;;;;5173919;23;20515;-87
2021/06/14 09:37:30;;;;;;;7.83;5.70;;;22.70;83.50;;;;;;5173580;23;20412;-87
2021/06/14 09:39:39;;;;;;;7.20;5.00;;;22.80;83.10;;;;;;5165650;23;20785;-87
2021/06/14 09:42:26;;;;;;;7.13;5.23;;;22.80;83.10;;;;;;5165008;22;20499;-87
2021/06/14 09:45:00;;;;;;;10.80;5.50;;;22.80;83.30;;;;;;5163974;23;20489;-87
2021/06/14 09:47:13;;;;;;;13.00;5.67;;;22.80;84.00;;;;;;5159547;22;20498;-87
2021/06/14 09:49:26;;;;;;;7.03;5.70;;;23.00;83.40;;;;;;5173007;23;20459;-87
2021/06/14 09:51:37;;;;;;;11.00;5.47;;;23.10;83.30;;;;;;5173425;23;20769;-87
2021/06/14 09:53:47;;;;;;;8.93;5.70;;;23.30;83.80;;;;;;5173813;23;20416;-87
2021/06/14 09:56:18;;;;;;;8.43;5.60;;;23.50;82.50;;;;;;5173811;23;20415;-87
2021/06/14 09:58:33;;;;;;;7.63;5.20;;;23.30;82.70;;;;;;5173578;23;20915;-87
2021/06/14 10:00:50;;;;;;;7.77;5.37;;;23.40;82.40;;;;;;5165381;23;21052;-87
2021/06/14 10:03:13;;;;;;;10.23;5.50;;;23.50;82.50;;;;;;5162727;22;20498;-86
2021/06/14 10:05:25;;;;;;;16.17;5.60;;;23.60;82.50;;;;;;5173818;22;20414;-87
2021/06/14 10:07:34;;;;;;;8.00;5.60;;;23.60;81.50;;;;;;5173602;22;20893;-88
2021/06/14 10:09:46;;;;;;;9.00;5.73;;;23.60;82.40;;;;;;5173799;23;20466;-87
2021/06/14 10:12:19;;;;;;;6.70;5.00;;;23.60;81.90;;;;;;5164227;22;20456;-87
2021/06/14 10:14:37;;;;;;;7.50;5.43;;;23.70;82.10;;;;;;5173900;23;21142;-86
2021/06/14 10:16:46;;;;;;;7.83;6.07;;;23.90;82.10;;;;;;5173911;22;20462;-87
2021/06/14 10:18:58;;;;;;;8.30;5.97;;;23.90;81.50;;;;;;5173793;22;20884;-87
2021/06/14 10:21:14;;;;;;;7.20;4.90;;;24.10;81.50;;;;;;5174502;23;20419;-87
2021/06/14 10:23:23;;;;;;;7.37;5.30;;;24.10;80.90;;;;;;5174912;23;20416;-87
2021/06/14 10:25:29;;;;;;;6.80;4.83;;;24.10;80.60;;;;;;5175190;22;20412;-87
2021/06/14 10:27:44;;;;;;;7.13;4.93;;;24.10;80.90;;;;;;5174602;23;20435;-87
2021/06/14 10:30:00;;;;;;;8.70;5.20;;;24.00;80.20;;;;;;5176277;23;20442;-87
2021/06/14 10:32:07;;;;;;;11.03;7.40;;;24.00;81.00;;;;;;5175520;22;20522;-87
2021/06/14 10:34:19;;;;;;;7.00;5.00;;;24.20;80.90;;;;;;5175737;22;20423;-87
2021/06/14 10:36:28;;;;;;;8.57;5.47;;;24.20;80.10;;;;;;5175472;23;20419;-87
2021/06/14 10:38:45;;;;;;;7.13;5.40;;;24.20;80.20;;;;;;5175095;23;20451;-87
2021/06/14 10:40:52;;;;;;;6.47;5.20;;;24.20;80.30;;;;;;5175778;23;20897;-88
2021/06/14 10:43:07;;;;;;;6.50;4.97;;;24.30;79.90;;;;;;5175356;23;20439;-88
2021/06/14 10:45:26;;;;;;;6.10;5.07;;;24.40;80.30;;;;;;5175164;23;20430;-89
2021/06/14 10:50:55;;;;;;;7.53;4.90;;;25.10;78.60;;;;;;5165239;22;20458;-88
2021/06/14 10:53:17;;;;;;;6.73;4.97;;;24.90;78.60;;;;;;5174871;23;20602;-89
2021/06/14 10:55:26;;;;;;;8.87;5.70;;;25.00;78.70;;;;;;5175361;23;20439;-89
2021/06/14 10:57:44;;;;;;;5.83;4.80;;;25.10;77.30;;;;;;5174782;22;20450;-89
2021/06/14 10:59:56;;;;;;;6.33;5.17;;;25.30;78.30;;;;;;5175214;23;20416;-89
2021/06/14 11:02:09;;;;;;;11.63;8.17;;;25.40;77.30;;;;;;5173919;23;20448;-89
2021/06/14 11:04:29;;;;;;;6.73;5.50;;;25.50;78.00;;;;;;5174121;23;20836;-89
2021/06/14 11:06:42;;;;;;;8.17;5.43;;;25.70;76.40;;;;;;5174360;23;20423;-89
2021/06/14 11:09:15;;;;;;;6.97;4.97;;;25.80;77.20;;;;;;5173629;23;20419;-89
2021/06/14 11:11:38;;;;;;;7.80;4.87;;;25.90;76.60;;;;;;5174079;23;20420;-89
2021/06/14 11:13:55;;;;;;;6.60;5.10;;;25.90;75.40;;;;;;5145554;22;20530;-89
2021/06/14 11:16:06;;;;;;;7.30;4.90;;;25.70;76.40;;;;;;5173733;23;20486;-90
2021/06/14 11:18:29;;;;;;;6.10;5.10;;;26.00;76.10;;;;;;5174141;22;20415;-89
2021/06/14 11:20:48;;;;;;;6.83;4.80;;;26.20;75.30;;;;;;5174021;23;20427;-89
2021/06/14 11:23:10;;;;;;;5.60;4.73;;;26.30;76.10;;;;;;5174033;23;20921;-89
2021/06/14 11:25:27;;;;;;;7.20;5.00;;;26.40;75.40;;;;;;5173912;22;21175;-89
2021/06/14 11:27:48;;;;;;;6.63;5.53;;;26.40;74.90;;;;;;5173761;23;20503;-89
2021/06/14 11:29:53;;;;;;;6.70;4.63;;;26.60;75.10;;;;;;5174039;23;20413;-89
2021/06/14 11:32:17;;;;;;;6.73;4.80;;;26.40;75.30;;;;;;5173514;23;20941;-89
2021/06/14 11:34:24;;;;;;;6.20;4.43;;;26.60;75.20;;;;;;5173777;23;20452;-89
2021/06/14 11:36:43;;;;;;;5.50;4.83;;;26.50;74.30;;;;;;5173997;23;20408;-89
2021/06/14 11:39:17;;;;;;;5.10;4.60;;;26.10;75.10;;;;;;5173854;22;20477;-89
2021/06/14 11:41:37;;;;;;;9.67;5.00;;;26.20;74.90;;;;;;5174162;22;20428;-90
2021/06/14 11:44:34;;;;;;;5.33;4.83;;;26.40;75.50;;;;;;5173779;23;20511;-89
2021/06/14 11:46:53;;;;;;;6.93;5.23;;;26.90;74.30;;;;;;5173795;22;20424;-87
2021/06/14 11:54:28;;;;;;;5.80;4.90;;;27.20;72.90;;;;;;5162097;22;20961;-88
2021/06/14 11:57:21;;;;;;;;;;;;;;;;;;;;;
2021/06/14 11:59:51;;;;;;;5.70;4.90;;;27.60;73.00;;;;;;5173614;23;20412;-88
2021/06/14 12:02:31;;;;;;;5.10;4.67;;;27.50;72.80;;;;;;5172846;23;20451;-88
2021/06/14 12:05:12;;;;;;;6.10;5.30;;;27.80;72.70;;;;;;5173147;23;20765;-88
2021/06/14 12:07:38;;;;;;;5.70;5.07;;;27.80;71.80;;;;;;5173402;23;20426;-88
2021/06/14 12:10:09;;;;;;;7.07;5.10;;;28.10;71.60;;;;;;5173387;23;21178;-88
2021/06/14 12:12:39;;;;;;;8.17;5.57;;;28.20;71.10;;;;;;5173346;23;20479;-88
2021/06/14 12:15:08;;;;;;;6.53;5.10;;;28.50;70.90;;;;;;5173362;22;20460;-88
2021/06/14 12:17:35;;;;;;;6.40;5.37;;;28.60;70.70;;;;;;5173293;23;20420;-88
2021/06/14 12:19:54;;;;;;;6.17;4.80;;;28.30;70.70;;;;;;5173462;22;20400;-88
2021/06/14 12:22:11;;;;;;;6.30;5.07;;;28.20;71.50;;;;;;5172641;23;20447;-87
2021/06/14 12:24:32;;;;;;;6.07;5.17;;;28.10;71.30;;;;;;5173075;23;20416;-87
2021/06/14 12:29:25;;;;;;;6.30;5.00;;;28.00;72.30;;;;;;5163627;22;20493;-88
2021/06/14 12:32:02;;;;;;;5.60;4.50;;;27.90;72.70;;;;;;5163265;22;20478;-88
2021/06/14 12:36:48;;;;;;;4.97;4.43;;;28.90;70.60;;;;;;5173506;23;20425;-88
2021/06/14 12:39:31;;;;;;;6.30;5.13;;;29.00;71.40;;;;;;5173003;22;20438;-88
2021/06/14 12:42:05;;;;;;;7.43;4.50;;;29.40;68.30;;;;;;5173281;22;20443;-88
2021/06/14 12:47:21;;;;;;;6.00;4.67;;;28.40;70.00;;;;;;5106241;22;20440;-88
2021/06/14 12:49:37;;;;;;;6.93;4.43;;;28.50;71.00;;;;;;5172933;22;20451;-88
2021/06/14 12:52:34;;;;;;;6.10;5.20;;;28.80;69.50;;;;;;5172492;23;20530;-88
2021/06/14 12:54:59;;;;;;;5.67;4.37;;;28.40;69.40;;;;;;5173064;23;20416;-88
2021/06/14 12:57:10;;;;;;;6.03;4.80;;;28.10;70.40;;;;;;5173341;23;20411;-88
2021/06/14 12:59:23;;;;;;;9.20;4.80;;;28.60;70.10;;;;;;5173651;23;20431;-88
2021/06/14 13:01:40;;;;;;;5.33;4.73;;;28.50;69.90;;;;;;5179731;22;20440;-88
2021/06/14 13:04:00;;;;;;;6.13;4.40;;;28.50;70.10;;;;;;5175071;23;20407;-88
2021/06/14 13:06:24;;;;;;;5.20;4.40;;;28.60;69.90;;;;;;5172625;23;20430;-88
2021/06/14 13:08:44;;;;;;;6.60;4.87;;;28.60;70.30;;;;;;5172086;22;20484;-88
2021/06/14 13:11:26;;;;;;;6.83;4.03;;;29.30;69.40;;;;;;5172999;23;20423;-86
2021/06/14 13:13:56;;;;;;;4.90;4.27;;;29.70;68.80;;;;;;5172497;23;20450;-86
2021/06/14 13:16:08;;;;;;;5.73;4.63;;;30.20;67.90;;;;;;5173098;22;20437;-85
2021/06/14 13:18:31;;;;;;;5.33;4.50;;;29.80;68.10;;;;;;5172532;22;20410;-86
2021/06/14 13:20:59;;;;;;;10.00;8.90;;;30.00;68.40;;;;;;5165007;23;20485;-86
2021/06/14 13:23:20;;;;;;;8.93;7.13;;;30.30;67.50;;;;;;5139339;23;20523;-85
2021/06/14 13:25:49;;;;;;;;;;;;;;;;;;;;;
2021/06/14 13:28:17;;;;;;;;;;;;;;;;;;;;;
2021/06/14 13:30:57;;;;;;;9.00;4.63;;;30.50;66.70;;;;;;5147358;23;20420;-85
2021/06/14 13:33:26;;;;;;;6.97;5.10;;;30.50;66.50;;;;;;5147045;23;20468;-85
2021/06/14 13:35:38;;;;;;;4.87;4.33;;;30.60;66.70;;;;;;5147343;23;20594;-85
2021/06/14 13:37:59;;;;;;;5.10;4.60;;;30.30;67.30;;;;;;5148515;23;20451;-85
2021/06/14 13:42:51;;;;;;;7.93;4.67;;;30.40;66.80;;;;;;5138036;23;20527;-86
2021/06/14 13:45:17;;;;;;;5.70;4.70;;;31.00;65.90;;;;;;5160947;23;20424;-86
2021/06/14 13:47:28;;;;;;;5.83;5.23;;;31.30;65.10;;;;;;5164905;23;20428;-86
2021/06/14 13:49:44;;;;;;;4.90;4.27;;;31.30;65.00;;;;;;5162557;23;20432;-86
2021/06/14 13:52:08;;;;;;;6.38;5.38;;;31.40;65.50;;;;;;5148933;23;20436;-86
2021/06/14 13:56:21;;;;;;;7.90;4.80;;;31.30;64.80;;;;;;5167806;23;20488;-83
2021/06/14 13:58:34;;;;;;;6.03;4.80;;;31.30;64.90;;;;;;5176739;23;20422;-83
2021/06/14 14:00:38;;;;;;;4.90;4.40;;;30.30;66.10;;;;;;5178809;23;20486;-82
2021/06/14 14:02:47;;;;;;;6.63;4.70;;;29.80;67.50;;;;;;5177968;23;20431;-84
2021/06/14 14:04:50;;;;;;;5.87;4.93;;;30.00;67.50;;;;;;5169665;23;20978;-82
2021/06/14 14:06:55;;;;;;;5.30;4.20;;;29.80;68.30;;;;;;5175540;23;20423;-81
2021/06/14 14:09:00;;;;;;;8.90;4.43;;;29.70;68.80;;;;;;5174674;23;20526;-81
2021/06/14 14:11:03;;;;;;;6.37;4.70;;;29.90;68.10;;;;;;5174848;23;20422;-83
2021/06/14 14:13:06;;;;;;;5.53;4.83;;;30.00;67.60;;;;;;5175465;23;20461;-83
2021/06/14 14:15:11;;;;;;;5.40;4.90;;;29.50;68.10;;;;;;5175522;23;20474;-81
2021/06/14 14:17:14;;;;;;;7.47;4.33;;;28.80;69.70;;;;;;5175952;23;20451;-82
2021/06/14 14:19:21;;;;;;;5.83;4.57;;;28.80;70.00;;;;;;5175679;23;20426;-82